Time;durP1;ratioP1;P1;durP2;ratioP2;P2;SDS_P1;SDS_P2;PMS_P1;PMS_P2;Temp;Humidity;BMP_temperature;BMP_pressure;BME280_temperature;BME280_humidity;BME280_pressure;Samples;Min_cycle;Max_cycle;Signal;HPM_P1;HPM_P2
2021/09/24 00:01:20;;;;;;;22.98;11.05;;;13.30;99.90;;;;;;4995289;28;20506;-72
2021/09/24 00:03:47;;;;;;;21.58;11.80;;;13.30;99.90;;;;;;4997322;28;20663;-71
2021/09/24 00:06:14;;;;;;;22.15;10.98;;;13.20;99.90;;;;;;4981083;28;20144;-72
2021/09/24 00:08:40;;;;;;;28.65;12.35;;;13.30;99.90;;;;;;4997842;28;20073;-70
2021/09/24 00:11:07;;;;;;;32.95;13.02;;;13.30;99.90;;;;;;4996971;28;20053;-71
2021/09/24 00:13:34;;;;;;;26.83;12.45;;;13.30;99.90;;;;;;4987193;28;20053;-71
2021/09/24 00:16:01;;;;;;;34.78;14.82;;;13.30;99.90;;;;;;4979403;28;20698;-72
2021/09/24 00:18:28;;;;;;;29.40;12.80;;;13.20;99.90;;;;;;4997067;28;20469;-70
2021/09/24 00:20:55;;;;;;;26.92;15.15;;;13.30;99.90;;;;;;4998794;28;20062;-71
2021/09/24 00:23:22;;;;;;;30.77;15.48;;;13.30;99.90;;;;;;4998808;28;20401;-70
2021/09/24 00:25:49;;;;;;;19.92;9.95;;;13.30;99.90;;;;;;4998100;28;20104;-72
2021/09/24 00:28:15;;;;;;;23.55;10.30;;;13.30;99.90;;;;;;4958372;28;20043;-71
2021/09/24 00:30:42;;;;;;;21.88;10.23;;;13.30;99.90;;;;;;5003078;28;20056;-71
2021/09/24 00:33:09;;;;;;;17.13;8.45;;;13.30;99.90;;;;;;5003716;28;20058;-72
2021/09/24 00:35:36;;;;;;;28.15;10.55;;;13.30;99.90;;;;;;5004026;28;20413;-71
2021/09/24 00:38:03;;;;;;;19.17;10.63;;;13.30;99.90;;;;;;5004050;28;20065;-71
2021/09/24 00:40:34;;;;;;;24.27;11.55;;;13.30;99.90;;;;;;5002818;28;20054;-71
2021/09/24 00:43:02;;;;;;;25.63;11.50;;;13.30;99.90;;;;;;4996901;28;20054;-71
2021/09/24 00:45:29;;;;;;;19.10;11.13;;;13.40;99.90;;;;;;4984361;28;20058;-70
2021/09/24 00:47:55;;;;;;;27.92;12.38;;;13.30;99.90;;;;;;4999797;28;20065;-70
2021/09/24 00:50:22;;;;;;;28.25;12.02;;;13.40;99.90;;;;;;5004376;28;21055;-70
2021/09/24 00:52:53;;;;;;;27.73;13.57;;;13.40;99.90;;;;;;5005229;28;20152;-70
2021/09/24 00:55:21;;;;;;;32.75;14.32;;;13.50;99.90;;;;;;5004008;28;20533;-70
2021/09/24 00:57:49;;;;;;;22.83;14.07;;;13.40;99.90;;;;;;5002234;28;20042;-70
2021/09/24 01:00:16;;;;;;;23.02;13.20;;;13.40;99.90;;;;;;4986588;28;20034;-70
2021/09/24 01:02:43;;;;;;;28.88;13.05;;;13.40;99.90;;;;;;5004141;28;20049;-69
2021/09/24 01:05:12;;;;;;;22.63;12.23;;;13.40;99.90;;;;;;5002986;28;20054;-70
2021/09/24 01:07:42;;;;;;;28.52;11.77;;;13.30;99.90;;;;;;5001814;28;20498;-70
2021/09/24 01:10:12;;;;;;;18.88;11.43;;;13.30;99.90;;;;;;5001724;28;20068;-70
2021/09/24 01:12:40;;;;;;;24.50;12.68;;;13.30;99.90;;;;;;5000139;28;20418;-70
2021/09/24 01:15:13;;;;;;;27.60;13.02;;;13.30;99.90;;;;;;5001693;28;20045;-69
2021/09/24 01:17:40;;;;;;;30.77;14.45;;;13.30;99.90;;;;;;4986133;28;20046;-71
2021/09/24 01:20:09;;;;;;;28.20;15.77;;;13.30;99.90;;;;;;5003417;28;20136;-70
2021/09/24 01:22:37;;;;;;;34.45;16.67;;;13.30;99.90;;;;;;5004775;28;20069;-70
2021/09/24 01:25:06;;;;;;;36.95;15.15;;;13.40;99.90;;;;;;5002186;28;20129;-70
2021/09/24 01:27:34;;;;;;;36.92;14.98;;;13.30;99.90;;;;;;4995790;28;20105;-70
2021/09/24 01:30:01;;;;;;;32.17;15.77;;;13.30;99.90;;;;;;4975607;28;20094;-70
2021/09/24 01:32:27;;;;;;;29.90;15.55;;;13.40;99.90;;;;;;5004049;28;20046;-69
2021/09/24 01:34:54;;;;;;;29.73;15.63;;;13.30;99.90;;;;;;5007057;28;20415;-70
2021/09/24 01:37:22;;;;;;;29.60;16.35;;;13.30;99.90;;;;;;5004290;28;20054;-70
2021/09/24 01:39:48;;;;;;;31.92;15.65;;;13.40;99.90;;;;;;4994482;28;20296;-70
2021/09/24 01:42:15;;;;;;;31.90;15.60;;;13.30;99.90;;;;;;4978346;28;20060;-71
2021/09/24 01:44:42;;;;;;;28.70;17.08;;;13.30;99.90;;;;;;4989962;28;20490;-70
2021/09/24 01:47:09;;;;;;;38.25;17.50;;;13.30;99.90;;;;;;4990232;28;20053;-70
2021/09/24 01:49:36;;;;;;;36.50;19.10;;;13.30;99.90;;;;;;5000155;28;20033;-70
2021/09/24 01:52:03;;;;;;;37.35;17.65;;;13.30;99.90;;;;;;4999392;28;20054;-70
2021/09/24 01:54:30;;;;;;;30.13;16.83;;;13.30;99.90;;;;;;5002147;28;20050;-70
2021/09/24 01:56:57;;;;;;;33.75;15.73;;;13.30;99.90;;;;;;4999635;28;20185;-69
2021/09/24 01:59:24;;;;;;;35.25;16.30;;;13.30;99.90;;;;;;4987980;28;20062;-70
2021/09/24 02:01:51;;;;;;;32.83;16.60;;;13.30;99.90;;;;;;4980295;28;20541;-70
2021/09/24 02:04:19;;;;;;;28.30;15.48;;;13.30;99.90;;;;;;4981397;28;20455;-70
2021/09/24 02:06:45;;;;;;;33.75;17.73;;;13.30;99.90;;;;;;4980584;28;20423;-70
2021/09/24 02:09:13;;;;;;;32.33;17.80;;;13.30;99.90;;;;;;4979401;28;20084;-69
2021/09/24 02:11:40;;;;;;;39.45;18.77;;;13.30;99.90;;;;;;4998506;28;20050;-69
2021/09/24 02:14:07;;;;;;;36.03;18.85;;;13.30;99.90;;;;;;4982348;28;20553;-69
2021/09/24 02:16:34;;;;;;;29.45;17.83;;;13.20;99.90;;;;;;4989967;28;20045;-69
2021/09/24 02:19:01;;;;;;;38.35;18.25;;;13.20;99.90;;;;;;5004038;28;20061;-69
2021/09/24 02:21:28;;;;;;;35.97;19.35;;;13.30;99.90;;;;;;4997693;28;20049;-70
2021/09/24 02:23:56;;;;;;;38.22;17.08;;;13.20;99.90;;;;;;5000260;28;20560;-70
2021/09/24 02:26:23;;;;;;;41.75;18.20;;;13.30;99.90;;;;;;4999022;28;20067;-70
2021/09/24 02:29:08;;;;;;;37.42;18.27;;;13.20;99.90;;;;;;4991663;28;20058;-70
2021/09/24 02:31:35;;;;;;;35.78;17.58;;;13.20;99.90;;;;;;4998470;28;20127;-70
2021/09/24 02:34:03;;;;;;;45.65;20.83;;;13.20;99.90;;;;;;4981602;28;20052;-69
2021/09/24 02:36:29;;;;;;;40.30;21.13;;;13.20;99.90;;;;;;4994979;28;20058;-71
2021/09/24 02:38:57;;;;;;;51.28;23.50;;;13.30;99.90;;;;;;4990652;28;20057;-69
2021/09/24 02:41:24;;;;;;;45.50;22.27;;;13.30;99.90;;;;;;4998762;28;20056;-71
2021/09/24 02:43:51;;;;;;;42.03;22.67;;;13.30;99.90;;;;;;4997116;28;20041;-71
2021/09/24 02:46:18;;;;;;;51.63;26.63;;;13.20;99.90;;;;;;4985918;28;20238;-71
2021/09/24 02:48:45;;;;;;;47.53;25.98;;;13.20;99.90;;;;;;4993668;28;20224;-68
2021/09/24 02:51:12;;;;;;;41.58;22.95;;;13.20;99.90;;;;;;4998954;28;20432;-70
2021/09/24 02:53:38;;;;;;;44.65;21.00;;;13.20;99.90;;;;;;4980230;28;20057;-70
2021/09/24 02:56:05;;;;;;;49.83;22.77;;;13.10;99.90;;;;;;4996663;28;20053;-68
2021/09/24 02:58:33;;;;;;;50.30;21.77;;;13.10;99.90;;;;;;4994101;28;20050;-69
2021/09/24 03:01:01;;;;;;;43.88;19.73;;;13.10;99.90;;;;;;4979136;28;20050;-69
2021/09/24 03:03:29;;;;;;;31.42;17.50;;;13.10;99.90;;;;;;4980104;28;20061;-70
2021/09/24 03:05:56;;;;;;;44.88;19.40;;;13.10;99.90;;;;;;4980496;28;20423;-69
2021/09/24 03:08:22;;;;;;;38.47;19.92;;;13.10;99.90;;;;;;4978960;28;20522;-70
2021/09/24 03:10:49;;;;;;;43.78;21.17;;;13.10;99.90;;;;;;4995490;28;20054;-70
2021/09/24 03:13:16;;;;;;;43.35;21.70;;;13.10;99.90;;;;;;4999725;28;20057;-71
2021/09/24 03:15:43;;;;;;;42.83;18.58;;;13.10;99.90;;;;;;4987830;28;20290;-70
2021/09/24 03:18:10;;;;;;;34.47;18.65;;;13.10;99.90;;;;;;4981976;28;20690;-70
2021/09/24 03:20:37;;;;;;;43.78;20.08;;;13.20;99.90;;;;;;4996805;28;20045;-69
2021/09/24 03:23:04;;;;;;;43.65;19.70;;;13.10;99.90;;;;;;4996973;28;20050;-70
2021/09/24 03:25:30;;;;;;;29.02;15.73;;;13.10;99.90;;;;;;4998660;28;20052;-72
2021/09/24 03:27:57;;;;;;;25.55;11.93;;;13.10;99.90;;;;;;4999384;28;20096;-70
2021/09/24 03:30:24;;;;;;;24.02;12.63;;;13.00;99.90;;;;;;4992735;28;20133;-70
2021/09/24 03:32:51;;;;;;;27.30;12.25;;;13.00;99.90;;;;;;4995428;28;20388;-70
2021/09/24 03:35:18;;;;;;;26.00;11.25;;;13.00;99.90;;;;;;4998720;28;20077;-69
2021/09/24 03:37:45;;;;;;;36.60;14.20;;;12.90;99.90;;;;;;4998616;28;20046;-69
2021/09/24 03:40:13;;;;;;;35.22;14.98;;;13.00;99.90;;;;;;4997010;28;20507;-70
2021/09/24 03:42:39;;;;;;;23.10;13.77;;;13.00;99.90;;;;;;4995057;28;20062;-71
2021/09/24 03:45:08;;;;;;;29.05;13.32;;;13.00;99.90;;;;;;4994488;28;20533;-70
2021/09/24 03:47:35;;;;;;;27.60;13.02;;;13.00;99.90;;;;;;4978458;28;20306;-70
2021/09/24 03:50:03;;;;;;;24.42;12.18;;;13.00;99.90;;;;;;4979345;28;20382;-71
2021/09/24 03:52:30;;;;;;;26.52;11.65;;;13.00;99.90;;;;;;4996694;28;20060;-70
2021/09/24 03:54:57;;;;;;;28.58;12.95;;;13.00;99.90;;;;;;4981929;28;20045;-69
2021/09/24 03:57:24;;;;;;;30.60;14.48;;;13.00;99.90;;;;;;4997142;28;20049;-70
2021/09/24 03:59:51;;;;;;;29.17;14.75;;;13.00;99.90;;;;;;4988355;28;20049;-69
2021/09/24 04:02:17;;;;;;;35.50;16.35;;;13.00;99.90;;;;;;4996580;28;20045;-69
2021/09/24 04:04:45;;;;;;;33.58;16.85;;;13.10;99.90;;;;;;4998593;28;20054;-70
2021/09/24 04:07:11;;;;;;;36.17;18.25;;;13.10;99.90;;;;;;4997532;28;20057;-70
2021/09/24 04:09:38;;;;;;;36.83;19.38;;;13.10;99.90;;;;;;4997736;28;20060;-70
2021/09/24 04:12:05;;;;;;;40.28;23.70;;;13.10;99.90;;;;;;4979737;28;20050;-70
2021/09/24 04:14:32;;;;;;;46.47;22.25;;;13.10;99.90;;;;;;4996444;28;20042;-70
2021/09/24 04:16:59;;;;;;;47.58;24.77;;;13.20;99.90;;;;;;4978121;28;20309;-70
2021/09/24 04:19:26;;;;;;;41.97;24.13;;;13.20;99.90;;;;;;4978253;28;20043;-71
2021/09/24 04:21:52;;;;;;;45.42;25.05;;;13.20;99.90;;;;;;4983825;28;20049;-70
2021/09/24 04:24:19;;;;;;;48.28;24.52;;;13.20;99.90;;;;;;4996585;28;20537;-70
2021/09/24 04:26:46;;;;;;;52.30;27.88;;;13.10;99.90;;;;;;4997426;28;20565;-70
2021/09/24 04:29:13;;;;;;;51.55;25.48;;;13.10;99.90;;;;;;4988440;28;20054;-71
2021/09/24 04:31:40;;;;;;;47.35;27.55;;;13.20;99.90;;;;;;4978033;28;20053;-71
2021/09/24 04:34:09;;;;;;;49.88;27.70;;;13.10;99.90;;;;;;4983369;28;20054;-71
2021/09/24 04:36:36;;;;;;;40.08;24.55;;;13.20;99.90;;;;;;4997217;28;20401;-71
2021/09/24 04:39:04;;;;;;;45.95;25.77;;;13.20;99.90;;;;;;4998917;28;20088;-71
2021/09/24 04:41:31;;;;;;;44.58;26.00;;;13.20;99.90;;;;;;4997874;28;20077;-71
2021/09/24 04:43:58;;;;;;;52.20;25.60;;;13.30;99.90;;;;;;4995656;28;20061;-71
2021/09/24 04:46:25;;;;;;;49.70;27.08;;;13.30;99.90;;;;;;4980959;28;20062;-71
2021/09/24 04:48:52;;;;;;;67.70;33.40;;;13.30;99.90;;;;;;4980970;28;20768;-71
2021/09/24 04:51:19;;;;;;;77.38;38.08;;;13.30;99.90;;;;;;4977072;28;20426;-71
2021/09/24 04:53:46;;;;;;;80.22;42.25;;;13.30;99.90;;;;;;4973613;28;20136;-71
2021/09/24 04:56:13;;;;;;;94.35;43.95;;;13.40;99.90;;;;;;4999421;28;20442;-71
2021/09/24 04:58:40;;;;;;;97.30;47.45;;;13.40;99.90;;;;;;4992073;28;20415;-71
2021/09/24 05:01:06;;;;;;;90.72;46.45;;;13.50;99.90;;;;;;4978658;28;20042;-71
2021/09/24 05:03:33;;;;;;;93.57;46.22;;;13.50;99.90;;;;;;4984473;28;20046;-71
2021/09/24 05:06:00;;;;;;;93.93;48.45;;;13.50;99.90;;;;;;4996469;28;20521;-70
2021/09/24 05:08:27;;;;;;;92.45;46.17;;;13.50;99.90;;;;;;4964828;28;20042;-70
2021/09/24 05:10:54;;;;;;;84.35;42.95;;;13.50;99.90;;;;;;4996916;28;20174;-71
2021/09/24 05:13:21;;;;;;;85.32;44.65;;;13.50;99.90;;;;;;4997148;28;20046;-70
2021/09/24 05:15:48;;;;;;;80.68;42.20;;;13.60;99.90;;;;;;4982878;28;20074;-71
2021/09/24 05:18:15;;;;;;;71.80;39.45;;;13.60;99.90;;;;;;4993131;28;20345;-70
2021/09/24 05:20:41;;;;;;;81.75;44.05;;;13.60;99.90;;;;;;4983305;28;20236;-71
2021/09/24 05:23:08;;;;;;;87.75;44.33;;;13.50;99.90;;;;;;5003281;28;20297;-70
2021/09/24 05:25:35;;;;;;;92.47;46.20;;;13.50;99.90;;;;;;5002607;28;20073;-69
2021/09/24 05:28:02;;;;;;;96.30;46.90;;;13.50;99.90;;;;;;4981573;28;20576;-70
2021/09/24 05:30:29;;;;;;;110.28;49.08;;;13.50;99.90;;;;;;5013916;28;20132;-70
2021/09/24 05:32:56;;;;;;;100.10;48.42;;;13.60;99.90;;;;;;5002009;28;20408;-69
2021/09/24 05:35:23;;;;;;;104.45;50.90;;;13.60;99.90;;;;;;5002063;28;20054;-69
2021/09/24 05:37:50;;;;;;;105.70;51.13;;;13.60;99.90;;;;;;5003874;28;20647;-70
2021/09/24 05:40:16;;;;;;;120.75;54.40;;;13.50;99.90;;;;;;5001958;28;20737;-69
2021/09/24 05:42:43;;;;;;;114.97;53.42;;;13.50;99.90;;;;;;5000899;28;20060;-70
2021/09/24 05:45:14;;;;;;;131.25;57.60;;;13.50;99.90;;;;;;4980536;28;20126;-70
2021/09/24 05:47:42;;;;;;;128.52;57.58;;;13.50;99.90;;;;;;4995150;28;20108;-69
2021/09/24 05:50:14;;;;;;;122.25;53.72;;;13.50;99.90;;;;;;4999157;28;20528;-69
2021/09/24 05:52:50;;;;;;;119.28;52.30;;;13.60;99.90;;;;;;5000731;28;20057;-69
2021/09/24 05:55:22;;;;;;;128.40;54.95;;;13.70;99.90;;;;;;5000638;28;20060;-70
2021/09/24 05:57:50;;;;;;;127.10;54.22;;;13.70;99.90;;;;;;5001690;28;20133;-70
2021/09/24 06:00:19;;;;;;;117.10;50.15;;;13.70;99.90;;;;;;4996519;28;20250;-69
2021/09/24 06:02:48;;;;;;;121.82;52.42;;;13.70;99.90;;;;;;5001486;28;20065;-72
2021/09/24 06:05:16;;;;;;;111.10;50.22;;;13.70;99.90;;;;;;5002213;28;20081;-71
2021/09/24 06:07:45;;;;;;;105.82;45.75;;;13.60;99.90;;;;;;5000734;28;20060;-71
2021/09/24 06:10:15;;;;;;;115.95;48.30;;;13.60;99.90;;;;;;4999977;28;20350;-70
2021/09/24 06:12:44;;;;;;;98.93;41.20;;;13.70;99.90;;;;;;4992861;28;20400;-70
2021/09/24 06:15:12;;;;;;;103.32;41.50;;;13.60;99.90;;;;;;4995098;28;20033;-69
2021/09/24 06:17:38;;;;;;;101.03;41.28;;;13.60;99.90;;;;;;4984794;28;20054;-71
2021/09/24 06:20:06;;;;;;;99.70;40.92;;;13.70;99.90;;;;;;4960875;28;20514;-71
2021/09/24 06:22:33;;;;;;;98.10;42.53;;;13.70;99.90;;;;;;4979689;28;20471;-70
2021/09/24 06:24:59;;;;;;;98.43;40.80;;;13.80;99.90;;;;;;4978782;28;20372;-70
2021/09/24 06:27:27;;;;;;;92.25;39.53;;;13.70;99.90;;;;;;4979110;28;20050;-70
2021/09/24 06:29:54;;;;;;;92.53;40.17;;;13.70;99.90;;;;;;4980254;28;20050;-70
2021/09/24 06:32:22;;;;;;;85.18;38.70;;;13.70;99.90;;;;;;4965858;28;20049;-69
2021/09/24 06:34:49;;;;;;;93.57;39.88;;;13.80;99.90;;;;;;4965112;28;20057;-70
2021/09/24 06:37:17;;;;;;;96.15;38.20;;;13.80;99.90;;;;;;4995496;28;20053;-70
2021/09/24 06:39:44;;;;;;;88.45;38.63;;;13.80;99.90;;;;;;4994413;28;20199;-70
2021/09/24 06:42:12;;;;;;;95.80;37.50;;;13.90;99.90;;;;;;4994765;28;20046;-70
2021/09/24 06:44:39;;;;;;;88.55;37.10;;;13.90;99.90;;;;;;4978614;28;20358;-71
2021/09/24 06:47:06;;;;;;;77.70;37.20;;;13.90;99.90;;;;;;4989473;28;20794;-70
2021/09/24 06:49:35;;;;;;;83.57;36.38;;;14.00;99.90;;;;;;4998542;28;20052;-71
2021/09/24 06:52:03;;;;;;;89.60;39.13;;;13.90;99.90;;;;;;4999113;28;20426;-71
2021/09/24 06:54:30;;;;;;;87.03;34.70;;;14.00;99.90;;;;;;4966238;28;20042;-71
2021/09/24 06:56:57;;;;;;;72.75;33.33;;;14.00;99.90;;;;;;4982160;28;20072;-70
2021/09/24 06:59:24;;;;;;;77.85;35.72;;;13.90;99.90;;;;;;4994079;28;20050;-70
2021/09/24 07:01:56;;;;;;;71.63;32.53;;;14.00;99.90;;;;;;4997754;28;20057;-70
2021/09/24 07:04:23;;;;;;;76.03;33.10;;;14.00;99.90;;;;;;4997873;28;20145;-70
2021/09/24 07:06:50;;;;;;;72.90;31.48;;;14.00;99.90;;;;;;4998388;28;20042;-70
2021/09/24 07:09:17;;;;;;;62.15;29.50;;;14.10;99.90;;;;;;4965821;28;20064;-69
2021/09/24 07:11:48;;;;;;;64.60;28.40;;;14.10;99.90;;;;;;4998683;28;20060;-69
2021/09/24 07:14:17;;;;;;;57.38;28.35;;;14.10;99.90;;;;;;4991825;28;20088;-70
2021/09/24 07:16:46;;;;;;;66.72;29.30;;;14.00;99.90;;;;;;4980203;28;20473;-69
2021/09/24 07:19:13;;;;;;;62.05;26.90;;;14.10;99.90;;;;;;5000502;28;20041;-70
2021/09/24 07:21:40;;;;;;;73.78;28.63;;;14.10;99.90;;;;;;4998924;28;20493;-70
2021/09/24 07:24:08;;;;;;;63.30;27.73;;;14.10;99.90;;;;;;4998770;28;20492;-69
2021/09/24 07:26:35;;;;;;;57.17;27.30;;;14.20;99.90;;;;;;4996834;28;20057;-70
2021/09/24 07:29:03;;;;;;;56.05;27.05;;;14.20;99.90;;;;;;4961796;28;20701;-70
2021/09/24 07:31:30;;;;;;;56.63;26.98;;;14.20;99.90;;;;;;4978975;28;20038;-70
2021/09/24 07:33:57;;;;;;;60.28;27.67;;;14.20;99.90;;;;;;4998295;28;20050;-69
2021/09/24 07:36:24;;;;;;;51.65;25.15;;;14.20;99.90;;;;;;4981275;28;20069;-69
2021/09/24 07:38:51;;;;;;;48.78;25.00;;;14.20;99.90;;;;;;4994503;28;20470;-69
2021/09/24 07:41:20;;;;;;;52.45;23.90;;;14.20;99.90;;;;;;4999324;28;20073;-69
2021/09/24 07:43:49;;;;;;;50.83;23.90;;;14.20;99.90;;;;;;4966693;28;20046;-69
2021/09/24 07:46:17;;;;;;;53.38;24.20;;;14.30;99.90;;;;;;4984197;28;20057;-71
2021/09/24 07:48:44;;;;;;;59.30;23.13;;;14.30;99.90;;;;;;4984399;28;20050;-72
2021/09/24 07:51:12;;;;;;;58.80;25.27;;;14.20;99.90;;;;;;5001724;28;20502;-71
2021/09/24 07:53:39;;;;;;;51.33;23.67;;;14.20;99.90;;;;;;5000622;28;20301;-71
2021/09/24 07:56:06;;;;;;;56.22;24.35;;;14.20;99.90;;;;;;4965334;28;20137;-71
2021/09/24 07:58:33;;;;;;;61.85;26.30;;;14.20;99.90;;;;;;4986530;28;20403;-70
2021/09/24 08:01:00;;;;;;;54.28;25.75;;;14.20;99.90;;;;;;4972458;28;20061;-71
2021/09/24 08:03:28;;;;;;;61.58;27.92;;;14.30;99.90;;;;;;5002094;28;20057;-71
2021/09/24 08:05:54;;;;;;;64.75;28.60;;;14.30;99.90;;;;;;5000390;28;20118;-72
2021/09/24 08:08:21;;;;;;;57.15;28.05;;;14.30;99.90;;;;;;4982415;28;20145;-70
2021/09/24 08:10:48;;;;;;;69.57;33.20;;;14.40;99.90;;;;;;5000879;28;20053;-71
2021/09/24 08:13:15;;;;;;;79.47;33.90;;;14.40;99.90;;;;;;4982635;28;20049;-72
2021/09/24 08:15:43;;;;;;;74.28;32.83;;;14.40;99.90;;;;;;4990032;28;20056;-70
2021/09/24 08:18:14;;;;;;;75.72;31.95;;;14.40;99.90;;;;;;4992060;28;20053;-70
2021/09/24 08:20:42;;;;;;;68.30;32.28;;;14.50;99.90;;;;;;4993607;28;20174;-71
2021/09/24 08:23:09;;;;;;;75.95;31.88;;;14.60;99.90;;;;;;4994331;28;20053;-71
2021/09/24 08:25:36;;;;;;;83.60;35.75;;;14.60;99.90;;;;;;4980834;28;20052;-70
2021/09/24 08:28:03;;;;;;;83.28;36.28;;;14.50;99.90;;;;;;4980703;28;20129;-71
2021/09/24 08:30:30;;;;;;;76.20;35.70;;;14.50;99.90;;;;;;4985569;28;20045;-71
2021/09/24 08:33:00;;;;;;;78.45;35.85;;;14.50;99.90;;;;;;4983083;28;20050;-71
2021/09/24 08:35:28;;;;;;;75.38;34.05;;;14.60;99.90;;;;;;4981931;28;20538;-70
2021/09/24 08:37:55;;;;;;;90.95;40.30;;;14.60;99.90;;;;;;4978514;28;20394;-71
2021/09/24 08:40:25;;;;;;;88.60;39.83;;;14.60;99.90;;;;;;4995387;28;20058;-70
2021/09/24 08:42:52;;;;;;;84.50;38.20;;;14.60;99.90;;;;;;4983853;28;20327;-71
2021/09/24 08:45:26;;;;;;;83.97;39.88;;;14.60;99.90;;;;;;5001482;28;20137;-71
2021/09/24 08:47:59;;;;;;;91.47;38.63;;;14.60;99.90;;;;;;4992439;28;20128;-71
2021/09/24 08:50:28;;;;;;;91.75;39.70;;;14.60;99.90;;;;;;4996399;28;20409;-71
2021/09/24 08:52:55;;;;;;;87.30;38.08;;;14.70;99.90;;;;;;4987735;28;20625;-70
2021/09/24 08:55:22;;;;;;;86.60;39.75;;;14.70;99.90;;;;;;4989010;28;20140;-71
2021/09/24 08:57:50;;;;;;;93.25;41.60;;;14.70;99.90;;;;;;5005435;28;20052;-71
2021/09/24 09:00:17;;;;;;;89.65;38.70;;;14.70;99.90;;;;;;4987929;28;20053;-70
2021/09/24 09:02:59;;;;;;;91.60;39.70;;;14.70;99.90;;;;;;4969976;28;20050;-70
2021/09/24 09:05:28;;;;;;;85.60;38.08;;;14.70;99.90;;;;;;4986772;28;20054;-70
2021/09/24 09:08:16;;;;;;;77.35;38.28;;;14.70;99.90;;;;;;4989470;28;20054;-71
2021/09/24 09:10:43;;;;;;;87.43;39.83;;;14.80;99.90;;;;;;4995586;28;20053;-71
2021/09/24 09:13:12;;;;;;;79.15;38.50;;;14.80;99.90;;;;;;5003422;28;20401;-72
2021/09/24 09:15:39;;;;;;;79.93;38.75;;;14.90;99.90;;;;;;5004197;28;20195;-71
2021/09/24 09:18:06;;;;;;;84.53;39.70;;;14.90;99.90;;;;;;4993255;28;20046;-71
2021/09/24 09:20:34;;;;;;;77.30;37.03;;;14.90;99.90;;;;;;4997862;28;20062;-71
2021/09/24 09:23:01;;;;;;;81.68;39.70;;;15.00;99.90;;;;;;4957971;28;20050;-70
2021/09/24 09:25:31;;;;;;;76.43;42.03;;;15.00;99.90;;;;;;4985465;28;20065;-70
2021/09/24 09:28:03;;;;;;;81.05;40.10;;;15.00;99.90;;;;;;4984225;28;20514;-70
2021/09/24 09:30:32;;;;;;;64.25;32.67;;;15.00;99.90;;;;;;4995462;28;20073;-70
2021/09/24 09:33:02;;;;;;;73.45;36.33;;;15.00;99.90;;;;;;4994424;28;20370;-71
2021/09/24 09:35:33;;;;;;;64.13;34.05;;;15.00;99.90;;;;;;4953847;28;20057;-71
2021/09/24 09:38:00;;;;;;;71.05;34.90;;;15.00;99.90;;;;;;4950587;28;20141;-71
2021/09/24 09:40:27;;;;;;;68.20;35.40;;;15.10;99.90;;;;;;4967943;28;20138;-70
2021/09/24 09:42:55;;;;;;;61.42;32.90;;;15.10;99.90;;;;;;4989776;28;20484;-71
2021/09/24 09:45:23;;;;;;;70.45;34.78;;;15.10;99.90;;;;;;4987536;28;20092;-71
2021/09/24 09:47:50;;;;;;;61.13;33.05;;;15.20;99.90;;;;;;5003667;28;20050;-71
2021/09/24 09:50:24;;;;;;;66.57;34.45;;;15.20;99.90;;;;;;5004806;28;20111;-71
2021/09/24 09:53:12;;;;;;;65.95;33.00;;;15.30;99.90;;;;;;4995586;28;20051;-71
2021/09/24 09:55:51;;;;;;;59.45;33.15;;;15.30;99.90;;;;;;4996658;28;20050;-71
2021/09/24 09:58:20;;;;;;;60.53;30.70;;;15.30;99.90;;;;;;5000459;28;20054;-71
2021/09/24 10:01:11;;;;;;;61.58;31.63;;;15.30;99.90;;;;;;4986475;28;20510;-71
2021/09/24 10:03:40;;;;;;;54.72;29.88;;;15.40;99.90;;;;;;4984379;28;20050;-72
2021/09/24 10:06:21;;;;;;;50.03;29.13;;;15.50;99.90;;;;;;4984513;28;20144;-71
2021/09/24 10:08:59;;;;;;;61.30;30.45;;;15.50;99.90;;;;;;4984138;28;20050;-70
2021/09/24 10:11:35;;;;;;;58.85;32.70;;;15.40;99.90;;;;;;4984822;28;20070;-71
2021/09/24 10:14:09;;;;;;;52.33;27.55;;;15.40;99.90;;;;;;5006092;28;20057;-71
2021/09/24 10:16:44;;;;;;;55.00;29.38;;;15.40;99.90;;;;;;5004084;28;20046;-70
2021/09/24 10:19:13;;;;;;;49.80;29.48;;;15.40;99.90;;;;;;4987356;28;20053;-69
2021/09/24 10:21:53;;;;;;;54.65;28.67;;;15.40;99.90;;;;;;4987948;28;20492;-71
2021/09/24 10:24:20;;;;;;;54.65;31.70;;;15.30;99.90;;;;;;5001949;28;20500;-71
2021/09/24 10:26:58;;;;;;;53.13;28.15;;;15.20;99.90;;;;;;4987152;28;20276;-70
2021/09/24 10:29:31;;;;;;;55.47;29.70;;;15.20;99.90;;;;;;4997507;28;20304;-70
2021/09/24 10:32:18;;;;;;;57.03;30.25;;;15.10;99.90;;;;;;4997913;28;20057;-68
2021/09/24 10:35:02;;;;;;;53.15;28.63;;;15.00;99.90;;;;;;4995373;28;20049;-69
2021/09/24 10:37:32;;;;;;;57.00;31.40;;;15.00;99.90;;;;;;5005216;28;20050;-69
2021/09/24 10:40:01;;;;;;;56.40;30.45;;;15.00;99.90;;;;;;5005025;28;20057;-69
2021/09/24 10:42:28;;;;;;;58.25;31.88;;;15.00;99.90;;;;;;5003609;28;20073;-69
2021/09/24 10:45:14;;;;;;;67.97;34.55;;;14.90;99.90;;;;;;5002820;28;20057;-69
2021/09/24 10:47:49;;;;;;;76.47;35.45;;;14.90;99.90;;;;;;5001433;28;20049;-69
2021/09/24 10:50:28;;;;;;;;;;;14.90;99.90;;;;;;5001143;28;20092;-70
2021/09/24 10:53:18;;;;;;;77.10;38.28;;;14.90;99.90;;;;;;5017529;28;19921;-70
2021/09/24 10:55:53;;;;;;;90.22;42.35;;;14.90;99.90;;;;;;4985678;28;20050;-70
2021/09/24 10:58:26;;;;;;;95.72;41.15;;;14.80;99.90;;;;;;4981359;28;20161;-71
2021/09/24 11:01:01;;;;;;;89.47;40.88;;;14.80;99.90;;;;;;4990236;28;20050;-70
2021/09/24 11:03:29;;;;;;;99.50;43.83;;;14.90;99.90;;;;;;5003440;28;20120;-70
2021/09/24 11:06:03;;;;;;;95.78;43.65;;;14.90;99.90;;;;;;5003515;28;20050;-70
2021/09/24 11:08:33;;;;;;;107.22;46.38;;;14.90;99.90;;;;;;5000592;28;20240;-72
2021/09/24 11:11:12;;;;;;;105.10;45.60;;;15.00;99.90;;;;;;4967905;28;20048;-73
2021/09/24 11:13:43;;;;;;;106.20;47.72;;;15.10;99.90;;;;;;5002129;28;20053;-75
2021/09/24 11:16:18;;;;;;;95.45;44.38;;;15.10;99.90;;;;;;5000116;28;20052;-73
2021/09/24 11:18:47;;;;;;;106.82;47.88;;;15.20;99.90;;;;;;4986186;28;20085;-71
2021/09/24 11:21:16;;;;;;;101.30;46.30;;;15.20;99.90;;;;;;5001122;28;20054;-72
2021/09/24 11:23:44;;;;;;;89.97;43.20;;;15.40;99.90;;;;;;4986624;28;20058;-71
2021/09/24 11:26:21;;;;;;;104.22;44.75;;;15.40;99.90;;;;;;4966635;28;20046;-71
2021/09/24 11:29:13;;;;;;;85.30;40.58;;;15.50;99.90;;;;;;4997077;28;20050;-72
2021/09/24 11:31:59;;;;;;;81.53;40.45;;;15.60;99.90;;;;;;4994538;28;20520;-71
2021/09/24 11:34:43;;;;;;;93.60;42.97;;;15.90;99.90;;;;;;4995934;28;20061;-71
2021/09/24 11:37:17;;;;;;;76.83;42.10;;;15.90;99.90;;;;;;4983945;28;20050;-70
2021/09/24 11:39:47;;;;;;;80.15;39.47;;;16.00;99.90;;;;;;4972261;28;20045;-72
2021/09/24 11:42:16;;;;;;;81.63;41.33;;;16.10;99.90;;;;;;4987261;28;20053;-72
2021/09/24 11:44:48;;;;;;;72.80;36.42;;;16.10;99.90;;;;;;4988924;28;20057;-71
2021/09/24 11:47:23;;;;;;;78.63;40.05;;;16.00;99.90;;;;;;5008845;28;20453;-72
2021/09/24 11:50:03;;;;;;;66.18;34.10;;;16.20;99.90;;;;;;4996762;28;20546;-70
2021/09/24 11:52:47;;;;;;;76.53;39.92;;;16.10;99.90;;;;;;5015065;28;20120;-71
2021/09/24 11:55:26;;;;;;;68.07;37.70;;;16.10;99.90;;;;;;4962440;28;20045;-70
2021/09/24 11:57:56;;;;;;;67.65;37.08;;;16.30;99.90;;;;;;4996773;28;20498;-73
2021/09/24 12:00:24;;;;;;;67.82;35.33;;;16.30;99.90;;;;;;4992945;28;20408;-70
2021/09/24 12:03:14;;;;;;;60.33;34.08;;;16.30;99.90;;;;;;4988929;28;20430;-70
2021/09/24 12:05:55;;;;;;;62.55;35.80;;;16.30;99.90;;;;;;5017335;28;20434;-71
2021/09/24 12:08:31;;;;;;;58.55;32.95;;;16.30;99.90;;;;;;5017575;28;20041;-71
2021/09/24 12:10:59;;;;;;;65.90;35.83;;;16.40;99.90;;;;;;4995677;28;20419;-71
2021/09/24 12:13:50;;;;;;;64.45;34.03;;;16.40;99.90;;;;;;5001952;28;20065;-73
2021/09/24 12:16:30;;;;;;;59.63;35.10;;;16.50;99.90;;;;;;4982867;28;20053;-70
2021/09/24 12:19:00;;;;;;;61.10;33.13;;;16.50;99.90;;;;;;4998689;28;20052;-70
2021/09/24 12:21:38;;;;;;;62.40;35.10;;;16.50;99.90;;;;;;4997837;28;20777;-71
2021/09/24 12:24:13;;;;;;;57.97;33.20;;;16.70;99.90;;;;;;4999800;28;20077;-70
2021/09/24 12:26:45;;;;;;;61.55;35.10;;;16.80;99.90;;;;;;4998384;28;20498;-72
2021/09/24 12:29:15;;;;;;;50.88;29.67;;;16.90;99.90;;;;;;4992905;28;20052;-70
2021/09/24 12:31:46;;;;;;;49.95;30.88;;;16.80;99.90;;;;;;5001491;28;20520;-71
2021/09/24 12:34:24;;;;;;;50.72;31.55;;;16.90;99.90;;;;;;5000793;28;20050;-70
2021/09/24 12:36:58;;;;;;;54.15;31.63;;;17.10;99.90;;;;;;4999868;28;20046;-70